Forside
METAR-TAF:

METAR-TAF

Lufthavne :

Willoughby, Ohio, USA

Breddekreds: 41-41-02N, længdekreds: 081-23-23W, højde: 191 m

Aktuelle vejr

Denne rapport blev lavet for 20 minutter siden, kl. 21:35 UTC
Vind 10 kt fra vestsydvest
Temperatur 1°C
Fugtighed 86%
Tryk 1009 hPa
Sigt: 4.0 km
Overskyet i en højde af 600 ft

METAR: KLNN 262135Z AUTO 25010KT 2 1/2SM OVC006 01/M01 A2981 RMK AO1 T00061010

Tid: 16:55 (21:55 UTC)


TAF: fraværende

Vejrobservationer og prognoser fra mere end 4000 lufthavne (METAR og TAF).

De gule og røde prikker repræsenterer de meteorologiske stationer.

Flyt musen over at se navnet på stationen.

Så klik over at se vejr observationer og prognoser.

At skifte det kort: Klik på de grønne knapper med et sort kors for at zoome ind; på den grønne knap med en bindestreg for at zoome ud; eller på de grønne pile for tilstødende kort.


METAR-TAF: